sensor_id;sensor_type;location;lat;lon;timestamp;pressure;altitude;pressure_sealevel;temperature;humidity
62293;BME280;48292;47.724;18.992;2022-12-18T04:35:04;98843.68;;;-7.61;100.0
62293;BME280;48292;47.724;18.992;2022-12-18T04:40:06;98843.68;;;-7.61;100.0
62293;BME280;48292;47.724;18.992;2022-12-18T04:45:08;98861.73;;;-7.77;100.0
62293;BME280;48292;47.724;18.992;2022-12-18T04:50:10;98861.73;;;-7.77;100.0
62293;BME280;48292;47.724;18.992;2022-12-18T04:55:12;98870.63;;;-8.18;99.48
62293;BME280;48292;47.724;18.992;2022-12-18T05:00:14;98884.75;;;-7.88;100.0
62293;BME280;48292;47.724;18.992;2022-12-18T05:05:16;98884.75;;;-7.88;100.0
62293;BME280;48292;47.724;18.992;2022-12-18T05:10:18;98892.48;;;-7.89;100.0
62293;BME280;48292;47.724;18.992;2022-12-18T05:15:20;98892.48;;;-7.89;100.0
62293;BME280;48292;47.724;18.992;2022-12-18T05:20:22;98890.22;;;-8.03;100.0
62293;BME280;48292;47.724;18.992;2022-12-18T05:25:24;98890.22;;;-8.03;100.0
62293;BME280;48292;47.724;18.992;2022-12-18T05:30:26;98900.83;;;-8.04;100.0
62293;BME280;48292;47.724;18.992;2022-12-18T05:35:28;98900.83;;;-8.04;100.0
62293;BME280;48292;47.724;18.992;2022-12-18T05:40:31;98907.06;;;-8.27;100.0
62293;BME280;48292;47.724;18.992;2022-12-18T05:45:36;98907.06;;;-8.27;100.0
62293;BME280;48292;47.724;18.992;2022-12-18T05:50:39;98915.67;;;-8.37;100.0
62293;BME280;48292;47.724;18.992;2022-12-18T05:55:41;98929.1;;;-8.22;100.0
62293;BME280;48292;47.724;18.992;2022-12-18T06:00:44;98929.1;;;-8.22;100.0
62293;BME280;48292;47.724;18.992;2022-12-18T06:05:46;98937.58;;;-8.06;100.0
62293;BME280;48292;47.724;18.992;2022-12-18T06:10:49;98937.58;;;-8.06;100.0
62293;BME280;48292;47.724;18.992;2022-12-18T06:15:52;98941.23;;;-8.29;100.0
62293;BME280;48292;47.724;18.992;2022-12-18T06:20:54;98941.23;;;-8.29;100.0
62293;BME280;48292;47.724;18.992;2022-12-18T06:25:56;98947.06;;;-8.21;100.0
62293;BME280;48292;47.724;18.992;2022-12-18T06:30:58;98947.06;;;-8.21;100.0
62293;BME280;48292;47.724;18.992;2022-12-18T06:36:00;98964.72;;;-8.17;100.0
62293;BME280;48292;47.724;18.992;2022-12-18T06:41:05;98978.8;;;-8.08;100.0
62293;BME280;48292;47.724;18.992;2022-12-18T06:46:07;98978.8;;;-8.08;100.0
62293;BME280;48292;47.724;18.992;2022-12-18T06:51:10;98988.59;;;-7.85;100.0
62293;BME280;48292;47.724;18.992;2022-12-18T06:56:12;98988.59;;;-7.85;100.0
62293;BME280;48292;47.724;18.992;2022-12-18T07:01:14;99007.7;;;-7.75;100.0
62293;BME280;48292;47.724;18.992;2022-12-18T07:06:17;99007.7;;;-7.75;100.0
62293;BME280;48292;47.724;18.992;2022-12-18T07:11:19;99016.71;;;-7.69;100.0
62293;BME280;48292;47.724;18.992;2022-12-18T07:16:21;99016.71;;;-7.69;100.0
62293;BME280;48292;47.724;18.992;2022-12-18T07:21:27;99027.98;;;-7.67;100.0
62293;BME280;48292;47.724;18.992;2022-12-18T07:26:29;99027.98;;;-7.67;100.0
62293;BME280;48292;47.724;18.992;2022-12-18T07:31:30;99038.31;;;-7.35;100.0
62293;BME280;48292;47.724;18.992;2022-12-18T07:36:32;99047.69;;;-7.16;100.0
62293;BME280;48292;47.724;18.992;2022-12-18T07:41:34;99047.69;;;-7.16;100.0
62293;BME280;48292;47.724;18.992;2022-12-18T07:46:36;99063.13;;;-6.84;100.0
62293;BME280;48292;47.724;18.992;2022-12-18T07:51:38;99063.13;;;-6.84;100.0
62293;BME280;48292;47.724;18.992;2022-12-18T07:56:40;99084.42;;;-6.73;100.0
62293;BME280;48292;47.724;18.992;2022-12-18T08:01:42;99084.42;;;-6.73;100.0
62293;BME280;48292;47.724;18.992;2022-12-18T08:06:45;99090.05;;;-6.68;100.0
62293;BME280;48292;47.724;18.992;2022-12-18T08:11:49;99090.05;;;-6.68;100.0
62293;BME280;48292;47.724;18.992;2022-12-18T08:16:51;99091.63;;;-6.05;100.0
62293;BME280;48292;47.724;18.992;2022-12-18T08:21:54;99091.63;;;-6.05;100.0
62293;BME280;48292;47.724;18.992;2022-12-18T08:26:56;99094.11;;;-5.9;100.0
62293;BME280;48292;47.724;18.992;2022-12-18T08:32:01;99109.72;;;-5.32;100.0
62293;BME280;48292;47.724;18.992;2022-12-18T08:37:04;99109.72;;;-5.32;100.0
62293;BME280;48292;47.724;18.992;2022-12-18T08:42:05;99112.06;;;-5.06;100.0
62293;BME280;48292;47.724;18.992;2022-12-18T08:47:11;99112.06;;;-5.06;100.0
62293;BME280;48292;47.724;18.992;2022-12-18T08:52:13;99114.69;;;-4.81;99.96
62293;BME280;48292;47.724;18.992;2022-12-18T08:57:15;99114.69;;;-4.81;99.96
62293;BME280;48292;47.724;18.992;2022-12-18T09:02:17;99122.34;;;-4.71;97.41
62293;BME280;48292;47.724;18.992;2022-12-18T09:07:20;99122.34;;;-4.71;97.41
62293;BME280;48292;47.724;18.992;2022-12-18T09:12:22;99133.94;;;-4.47;98.09
62293;BME280;48292;47.724;18.992;2022-12-18T09:17:23;99133.94;;;-4.47;98.09
62293;BME280;48292;47.724;18.992;2022-12-18T09:22:25;99146.28;;;-4.2;96.71
62293;BME280;48292;47.724;18.992;2022-12-18T09:27:27;99153.28;;;-3.93;99.06
62293;BME280;48292;47.724;18.992;2022-12-18T09:32:29;99153.28;;;-3.93;99.06
62293;BME280;48292;47.724;18.992;2022-12-18T09:37:31;99147.92;;;-3.55;97.05
62293;BME280;48292;47.724;18.992;2022-12-18T09:42:32;99147.92;;;-3.55;97.05
62293;BME280;48292;47.724;18.992;2022-12-18T09:47:35;99142.87;;;-3.3;95.72
62293;BME280;48292;47.724;18.992;2022-12-18T09:52:39;99142.87;;;-3.3;95.72
62293;BME280;48292;47.724;18.992;2022-12-18T09:57:45;99145.84;;;-2.88;93.43
62293;BME280;48292;47.724;18.992;2022-12-18T10:02:48;99145.84;;;-2.88;93.43
62293;BME280;48292;47.724;18.992;2022-12-18T10:07:55;99127.55;;;-2.51;84.33
62293;BME280;48292;47.724;18.992;2022-12-18T10:13:07;99130.38;;;-2.26;82.0
62293;BME280;48292;47.724;18.992;2022-12-18T10:18:17;99130.38;;;-2.26;82.0
62293;BME280;48292;47.724;18.992;2022-12-18T10:23:23;99126.16;;;-2.06;81.33
62293;BME280;48292;47.724;18.992;2022-12-18T10:28:26;99126.16;;;-2.06;81.33
62293;BME280;48292;47.724;18.992;2022-12-18T10:33:31;99129.66;;;-1.76;76.52
62293;BME280;48292;47.724;18.992;2022-12-18T10:38:34;99129.66;;;-1.76;76.52
62293;BME280;48292;47.724;18.992;2022-12-18T10:43:36;99136.7;;;-1.71;67.11
62293;BME280;48292;47.724;18.992;2022-12-18T10:48:40;99136.7;;;-1.71;67.11
62293;BME280;48292;47.724;18.992;2022-12-18T10:53:50;99130.33;;;-1.36;68.41
62293;BME280;48292;47.724;18.992;2022-12-18T10:58:55;99126.05;;;-1.08;69.9
62293;BME280;48292;47.724;18.992;2022-12-18T11:03:59;99126.05;;;-1.08;69.9
62293;BME280;48292;47.724;18.992;2022-12-18T11:09:05;99117.44;;;-0.92;62.63
62293;BME280;48292;47.724;18.992;2022-12-18T11:14:12;99117.44;;;-0.92;62.63
62293;BME280;48292;47.724;18.992;2022-12-18T11:19:20;99115.41;;;-0.77;61.51
62293;BME280;48292;47.724;18.992;2022-12-18T11:24:26;99115.41;;;-0.77;61.51
62293;BME280;48292;47.724;18.992;2022-12-18T11:29:31;99121.43;;;-0.64;61.58
62293;BME280;48292;47.724;18.992;2022-12-18T11:34:33;99121.43;;;-0.64;61.58
62293;BME280;48292;47.724;18.992;2022-12-18T11:39:37;99105.59;;;-0.65;57.58
62293;BME280;48292;47.724;18.992;2022-12-18T11:44:46;99105.59;;;-0.65;57.58
62293;BME280;48292;47.724;18.992;2022-12-18T11:49:53;99100.8;;;-0.69;57.05
62293;BME280;48292;47.724;18.992;2022-12-18T11:55:01;99098.59;;;-0.58;60.46
62293;BME280;48292;47.724;18.992;2022-12-18T12:00:11;99098.59;;;-0.58;60.46
62293;BME280;48292;47.724;18.992;2022-12-18T12:05:19;99098.3;;;-0.28;64.77
62293;BME280;48292;47.724;18.992;2022-12-18T12:10:28;99098.3;;;-0.28;64.77
62293;BME280;48292;47.724;18.992;2022-12-18T12:15:36;99096.44;;;-0.33;60.51
62293;BME280;48292;47.724;18.992;2022-12-18T12:20:47;99096.44;;;-0.33;60.51
62293;BME280;48292;47.724;18.992;2022-12-18T12:25:56;99097.85;;;-0.37;63.11
62293;BME280;48292;47.724;18.992;2022-12-18T12:31:04;99097.85;;;-0.37;63.11
62293;BME280;48292;47.724;18.992;2022-12-18T12:36:16;99093.48;;;-0.32;60.78
62293;BME280;48292;47.724;18.992;2022-12-18T12:41:21;99093.66;;;-0.26;63.32
62293;BME280;48292;47.724;18.992;2022-12-18T12:46:29;99093.66;;;-0.26;63.32
62293;BME280;48292;47.724;18.992;2022-12-18T12:51:36;99117.8;;;-0.34;60.33
62293;BME280;48292;47.724;18.992;2022-12-18T12:56:45;99117.8;;;-0.34;60.33
62293;BME280;48292;47.724;18.992;2022-12-18T13:01:55;99131.98;;;-0.27;62.35
62293;BME280;48292;47.724;18.992;2022-12-18T13:07:06;99131.98;;;-0.27;62.35
62293;BME280;48292;47.724;18.992;2022-12-18T13:12:18;99133.7;;;-0.16;63.81
62293;BME280;48292;47.724;18.992;2022-12-18T13:17:28;99142.75;;;-0.14;64.58
62293;BME280;48292;47.724;18.992;2022-12-18T13:22:35;99142.75;;;-0.14;64.58
62293;BME280;48292;47.724;18.992;2022-12-18T13:32:55;99146.0;;;-0.03;68.11
62293;BME280;48292;47.724;18.992;2022-12-18T13:38:01;99150.01;;;-0.21;68.17
62293;BME280;48292;47.724;18.992;2022-12-18T13:48:16;99163.27;;;0.01;71.96
62293;BME280;48292;47.724;18.992;2022-12-18T13:53:24;99163.27;;;0.01;71.96
62293;BME280;48292;47.724;18.992;2022-12-18T13:58:32;99171.61;;;-0.01;74.37
62293;BME280;48292;47.724;18.992;2022-12-18T14:03:37;99167.96;;;-0.09;73.55
62293;BME280;48292;47.724;18.992;2022-12-18T14:08:44;99167.96;;;-0.09;73.55
62293;BME280;48292;47.724;18.992;2022-12-18T14:13:51;99173.45;;;-0.19;72.8
62293;BME280;48292;47.724;18.992;2022-12-18T14:18:54;99173.45;;;-0.19;72.8
62293;BME280;48292;47.724;18.992;2022-12-18T14:24:02;99167.63;;;-0.44;73.31
62293;BME280;48292;47.724;18.992;2022-12-18T14:34:14;99191.43;;;-1.2;73.84
62293;BME280;48292;47.724;18.992;2022-12-18T14:39:17;99191.43;;;-1.2;73.84
62293;BME280;48292;47.724;18.992;2022-12-18T14:44:19;99194.75;;;-1.71;79.97
62293;BME280;48292;47.724;18.992;2022-12-18T14:49:23;99218.2;;;-2.05;82.82
62293;BME280;48292;47.724;18.992;2022-12-18T14:54:27;99218.2;;;-2.05;82.82
62293;BME280;48292;47.724;18.992;2022-12-18T14:59:33;99222.67;;;-2.46;85.79
62293;BME280;48292;47.724;18.992;2022-12-18T15:04:41;99222.67;;;-2.46;85.79
62293;BME280;48292;47.724;18.992;2022-12-18T15:14:56;99226.06;;;-2.86;89.76
62293;BME280;48292;47.724;18.992;2022-12-18T15:20:01;99246.89;;;-3.14;93.25
62293;BME280;48292;47.724;18.992;2022-12-18T15:30:16;99254.69;;;-3.46;92.84
62293;BME280;48292;47.724;18.992;2022-12-18T15:35:21;99268.23;;;-3.67;97.79
62293;BME280;48292;47.724;18.992;2022-12-18T15:40:25;99268.23;;;-3.67;97.79
62293;BME280;48292;47.724;18.992;2022-12-18T15:45:29;99279.38;;;-3.45;95.42
62293;BME280;48292;47.724;18.992;2022-12-18T15:50:32;99279.38;;;-3.45;95.42
62293;BME280;48292;47.724;18.992;2022-12-18T15:55:37;99287.72;;;-3.64;100.0
62293;BME280;48292;47.724;18.992;2022-12-18T16:00:43;99287.72;;;-3.64;100.0
62293;BME280;48292;47.724;18.992;2022-12-18T16:05:49;99306.88;;;-3.55;98.31
62293;BME280;48292;47.724;18.992;2022-12-18T16:10:53;99306.88;;;-3.55;98.31
62293;BME280;48292;47.724;18.992;2022-12-18T16:15:58;99300.59;;;-3.66;99.1
62293;BME280;48292;47.724;18.992;2022-12-18T16:21:02;99318.3;;;-4.17;99.7
62293;BME280;48292;47.724;18.992;2022-12-18T16:26:05;99318.3;;;-4.17;99.7
62293;BME280;48292;47.724;18.992;2022-12-18T16:31:08;99325.09;;;-4.35;100.0
62293;BME280;48292;47.724;18.992;2022-12-18T16:36:12;99325.09;;;-4.35;100.0
62293;BME280;48292;47.724;18.992;2022-12-18T16:41:18;99337.7;;;-4.48;100.0
62293;BME280;48292;47.724;18.992;2022-12-18T16:46:22;99337.7;;;-4.48;100.0
62293;BME280;48292;47.724;18.992;2022-12-18T16:51:28;99333.31;;;-4.49;100.0
62293;BME280;48292;47.724;18.992;2022-12-18T16:56:32;99333.31;;;-4.49;100.0
62293;BME280;48292;47.724;18.992;2022-12-18T17:01:36;99335.13;;;-4.73;100.0
62293;BME280;48292;47.724;18.992;2022-12-18T17:06:48;99335.13;;;-4.73;100.0
62293;BME280;48292;47.724;18.992;2022-12-18T17:11:50;99324.89;;;-4.97;100.0
62293;BME280;48292;47.724;18.992;2022-12-18T17:16:55;99325.71;;;-5.15;100.0
62293;BME280;48292;47.724;18.992;2022-12-18T17:22:02;99325.71;;;-5.15;100.0
62293;BME280;48292;47.724;18.992;2022-12-18T17:27:05;99322.45;;;-4.89;100.0
62293;BME280;48292;47.724;18.992;2022-12-18T17:32:08;99322.45;;;-4.89;100.0
62293;BME280;48292;47.724;18.992;2022-12-18T17:37:13;99327.5;;;-5.09;100.0
62293;BME280;48292;47.724;18.992;2022-12-18T17:42:15;99327.5;;;-5.09;100.0
62293;BME280;48292;47.724;18.992;2022-12-18T17:47:20;99332.14;;;-5.24;100.0
62293;BME280;48292;47.724;18.992;2022-12-18T17:52:22;99332.14;;;-5.24;100.0
62293;BME280;48292;47.724;18.992;2022-12-18T17:57:27;99334.97;;;-5.51;100.0
62293;BME280;48292;47.724;18.992;2022-12-18T18:02:30;99340.17;;;-5.59;100.0
62293;BME280;48292;47.724;18.992;2022-12-18T18:07:38;99340.17;;;-5.59;100.0
62293;BME280;48292;47.724;18.992;2022-12-18T18:12:42;99352.17;;;-5.71;100.0
62293;BME280;48292;47.724;18.992;2022-12-18T18:17:46;99352.17;;;-5.71;100.0
62293;BME280;48292;47.724;18.992;2022-12-18T18:22:50;99340.28;;;-5.51;100.0
62293;BME280;48292;47.724;18.992;2022-12-18T18:27:55;99340.28;;;-5.51;100.0
62293;BME280;48292;47.724;18.992;2022-12-18T18:32:59;99357.78;;;-5.59;100.0
62293;BME280;48292;47.724;18.992;2022-12-18T18:38:02;99357.78;;;-5.59;100.0
62293;BME280;48292;47.724;18.992;2022-12-18T18:43:06;99349.75;;;-5.68;100.0
62293;BME280;48292;47.724;18.992;2022-12-18T18:48:09;99361.55;;;-5.73;100.0
62293;BME280;48292;47.724;18.992;2022-12-18T18:53:13;99361.55;;;-5.73;100.0
62293;BME280;48292;47.724;18.992;2022-12-18T18:58:17;99365.79;;;-5.66;100.0
62293;BME280;48292;47.724;18.992;2022-12-18T19:03:21;99365.79;;;-5.66;100.0
62293;BME280;48292;47.724;18.992;2022-12-18T19:08:27;99378.09;;;-5.73;100.0
62293;BME280;48292;47.724;18.992;2022-12-18T19:13:31;99378.09;;;-5.73;100.0
62293;BME280;48292;47.724;18.992;2022-12-18T19:18:34;99388.23;;;-5.9;100.0
62293;BME280;48292;47.724;18.992;2022-12-18T19:23:40;99388.23;;;-5.9;100.0
62293;BME280;48292;47.724;18.992;2022-12-18T19:28:43;99404.45;;;-6.0;100.0
62293;BME280;48292;47.724;18.992;2022-12-18T19:33:47;99404.45;;;-6.0;100.0
62293;BME280;48292;47.724;18.992;2022-12-18T19:38:53;99405.51;;;-6.09;100.0
62293;BME280;48292;47.724;18.992;2022-12-18T19:43:57;99405.22;;;-6.02;100.0
62293;BME280;48292;47.724;18.992;2022-12-18T19:49:08;99405.22;;;-6.02;100.0
62293;BME280;48292;47.724;18.992;2022-12-18T19:54:17;99410.19;;;-6.13;100.0
62293;BME280;48292;47.724;18.992;2022-12-18T19:59:20;99410.19;;;-6.13;100.0
62293;BME280;48292;47.724;18.992;2022-12-18T20:04:25;99412.16;;;-6.15;100.0
62293;BME280;48292;47.724;18.992;2022-12-18T20:09:28;99412.16;;;-6.15;100.0
62293;BME280;48292;47.724;18.992;2022-12-18T20:14:34;99417.36;;;-6.2;100.0
62293;BME280;48292;47.724;18.992;2022-12-18T20:19:36;99417.36;;;-6.2;100.0
62293;BME280;48292;47.724;18.992;2022-12-18T20:24:40;99427.81;;;-6.17;100.0
62293;BME280;48292;47.724;18.992;2022-12-18T20:29:44;99435.84;;;-6.05;100.0
62293;BME280;48292;47.724;18.992;2022-12-18T20:34:47;99435.84;;;-6.05;100.0
62293;BME280;48292;47.724;18.992;2022-12-18T20:39:53;99435.67;;;-5.73;100.0
62293;BME280;48292;47.724;18.992;2022-12-18T20:45:00;99435.67;;;-5.73;100.0
62293;BME280;48292;47.724;18.992;2022-12-18T20:50:04;99440.38;;;-5.59;100.0
62293;BME280;48292;47.724;18.992;2022-12-18T20:55:07;99440.38;;;-5.59;100.0
62293;BME280;48292;47.724;18.992;2022-12-18T21:00:12;99448.41;;;-5.68;100.0
62293;BME280;48292;47.724;18.992;2022-12-18T21:05:19;99448.41;;;-5.68;100.0
62293;BME280;48292;47.724;18.992;2022-12-18T21:10:22;99460.25;;;-5.59;100.0
62293;BME280;48292;47.724;18.992;2022-12-18T21:15:25;99460.69;;;-5.67;100.0
62293;BME280;48292;47.724;18.992;2022-12-18T21:20:30;99460.69;;;-5.67;100.0
62293;BME280;48292;47.724;18.992;2022-12-18T21:25:33;99448.48;;;-5.73;100.0
62293;BME280;48292;47.724;18.992;2022-12-18T21:30:34;99448.48;;;-5.73;100.0
62293;BME280;48292;47.724;18.992;2022-12-18T21:35:37;99443.09;;;-5.78;100.0
62293;BME280;48292;47.724;18.992;2022-12-18T21:40:39;99443.09;;;-5.78;100.0
62293;BME280;48292;47.724;18.992;2022-12-18T21:45:41;99430.14;;;-5.73;100.0
62293;BME280;48292;47.724;18.992;2022-12-18T21:50:43;99430.14;;;-5.73;100.0
62293;BME280;48292;47.724;18.992;2022-12-18T21:55:45;99430.14;;;-5.73;100.0
62293;BME280;48292;47.724;18.992;2022-12-18T22:00:46;99430.14;;;-5.73;100.0
62293;BME280;48292;47.724;18.992;2022-12-18T22:05:50;99430.14;;;-5.73;100.0
62293;BME280;48292;47.724;18.992;2022-12-18T22:10:56;99430.14;;;-5.73;100.0
62293;BME280;48292;47.724;18.992;2022-12-18T22:15:58;99430.14;;;-5.73;100.0
62293;BME280;48292;47.724;18.992;2022-12-18T22:21:00;99430.14;;;-5.73;100.0
62293;BME280;48292;47.724;18.992;2022-12-18T22:26:02;99430.14;;;-5.73;100.0
62293;BME280;48292;47.724;18.992;2022-12-18T22:31:04;99430.14;;;-5.73;100.0
62293;BME280;48292;47.724;18.992;2022-12-18T22:36:06;99430.14;;;-5.73;100.0
62293;BME280;48292;47.724;18.992;2022-12-18T22:41:08;99430.14;;;-5.73;100.0
